Time;durP1;ratioP1;P1;durP2;ratioP2;P2;SDS_P1;SDS_P2;PMS_P1;PMS_P2;Temp;Humidity;BMP_temperature;BMP_pressure;BME280_temperature;BME280_humidity;BME280_pressure;Samples;Min_cycle;Max_cycle;Signal;HPM_P1;HPM_P2
2021/08/07 00:00:35;;;;;;;2.35;1.17;;;;;;;13.21;100.00;94260.25;5072981;28;20032;-62
2021/08/07 00:03:06;;;;;;;2.00;1.50;;;;;;;13.19;100.00;94265.13;5055051;28;20502;-62
2021/08/07 00:05:31;;;;;;;3.22;1.45;;;;;;;13.16;100.00;94261.13;5072783;28;20036;-61
2021/08/07 00:07:57;;;;;;;2.45;1.30;;;;;;;13.12;100.00;94243.19;5054784;28;20039;-62
2021/08/07 00:10:34;;;;;;;3.92;1.60;;;;;;;13.10;100.00;94237.34;5054755;28;20025;-61
2021/08/07 00:13:00;;;;;;;7.30;1.65;;;;;;;13.08;100.00;94226.88;5072843;28;20494;-62
2021/08/07 00:15:26;;;;;;;4.05;1.40;;;;;;;13.08;100.00;94221.50;5038383;28;20063;-62
2021/08/07 00:17:55;;;;;;;2.40;1.55;;;;;;;13.07;100.00;94209.97;5072444;28;20519;-62
2021/08/07 00:20:20;;;;;;;5.30;1.95;;;;;;;13.06;100.00;94208.38;5072739;28;20527;-63
2021/08/07 00:22:54;;;;;;;4.18;1.60;;;;;;;13.04;100.00;94209.78;5072732;28;20100;-63
2021/08/07 00:25:19;;;;;;;3.38;1.40;;;;;;;13.00;100.00;94198.00;5072529;28;20379;-62
2021/08/07 00:27:45;;;;;;;3.83;1.50;;;;;;;12.98;100.00;94200.22;5072536;28;20024;-62
2021/08/07 00:30:16;;;;;;;5.03;1.55;;;;;;;12.95;100.00;94200.81;5054318;28;20024;-63
2021/08/07 00:32:47;;;;;;;2.42;1.08;;;;;;;12.92;100.00;94194.16;5072416;28;20032;-62
2021/08/07 00:35:17;;;;;;;7.80;1.50;;;;;;;12.92;100.00;94196.06;5047874;28;20056;-62
2021/08/07 00:37:45;;;;;;;1.85;1.15;;;;;;;12.90;100.00;94192.84;5047838;28;20168;-62
2021/08/07 00:40:16;;;;;;;3.60;1.10;;;;;;;12.90;100.00;94187.47;5072355;28;20020;-63
2021/08/07 00:42:46;;;;;;;2.22;1.40;;;;;;;12.88;100.00;94201.22;5072592;28;20021;-62
2021/08/07 00:45:13;;;;;;;4.93;1.65;;;;;;;12.89;100.00;94186.69;5072368;28;20028;-62
2021/08/07 00:47:38;;;;;;;2.67;1.50;;;;;;;12.89;100.00;94185.88;5072276;28;20574;-63
2021/08/07 00:50:10;;;;;;;4.65;1.50;;;;;;;12.89;100.00;94186.69;5054429;28;20067;-62
2021/08/07 00:52:35;;;;;;;6.30;1.55;;;;;;;12.91;100.00;94172.94;5038025;28;20036;-62
2021/08/07 00:55:04;;;;;;;2.53;1.40;;;;;;;12.92;100.00;94161.91;5054367;28;20028;-62
2021/08/07 00:57:31;;;;;;;3.85;1.45;;;;;;;12.92;100.00;94166.50;5054560;28;20020;-63
2021/08/07 01:00:08;;;;;;;2.15;1.27;;;;;;;12.92;100.00;94166.50;5072304;28;20021;-62
2021/08/07 01:02:36;;;;;;;3.95;1.30;;;;;;;12.94;100.00;94159.72;5072150;28;20067;-62
2021/08/07 01:05:37;;;;;;;2.35;1.25;;;;;;;12.96;100.00;94146.75;5072356;28;20057;-62
2021/08/07 01:08:20;;;;;;;3.45;1.33;;;;;;;13.00;100.00;94142.34;5055193;28;20401;-62
2021/08/07 01:11:20;;;;;;;3.33;1.30;;;;;;;13.04;100.00;94137.97;5072320;28;20032;-62
2021/08/07 01:13:53;;;;;;;5.72;1.20;;;;;;;13.08;100.00;94132.78;5072107;28;20032;-63
2021/08/07 01:16:35;;;;;;;3.45;1.40;;;;;;;13.14;100.00;94117.34;5072024;28;20028;-62
2021/08/07 01:19:10;;;;;;;3.33;1.23;;;;;;;13.18;100.00;94118.31;5072332;28;20045;-63
2021/08/07 01:21:43;;;;;;;4.32;1.50;;;;;;;13.23;100.00;94115.53;5054188;28;20494;-62
2021/08/07 01:24:20;;;;;;;4.40;1.42;;;;;;;13.29;100.00;94117.00;5072097;28;20029;-63
2021/08/07 01:27:11;;;;;;;3.45;1.48;;;;;;;13.34;100.00;94111.50;5071483;28;20025;-62
2021/08/07 01:29:37;;;;;;;4.65;1.45;;;;;;;13.39;100.00;94099.84;5016238;28;20078;-61
2021/08/07 01:32:03;;;;;;;2.65;1.17;;;;;;;13.41;100.00;94092.25;5071874;28;20024;-62
2021/08/07 01:34:37;;;;;;;2.95;1.30;;;;;;;13.42;100.00;94085.78;5071175;28;20094;-63
2021/08/07 01:37:11;;;;;;;2.72;1.27;;;;;;;13.44;100.00;94086.25;5026084;28;20033;-62
2021/08/07 01:39:43;;;;;;;3.47;1.10;;;;;;;13.44;100.00;94083.56;5053828;28;20028;-62
2021/08/07 01:42:08;;;;;;;4.18;1.40;;;;;;;13.44;100.00;94086.25;5071770;28;20024;-62
2021/08/07 01:44:33;;;;;;;2.50;1.20;;;;;;;13.45;100.00;94085.94;5071625;28;20035;-62
2021/08/07 01:47:09;;;;;;;3.30;1.42;;;;;;;13.48;100.00;94085.34;5071699;28;20016;-62
2021/08/07 01:49:47;;;;;;;3.67;1.40;;;;;;;13.50;100.00;94087.72;5055138;28;20032;-62
2021/08/07 01:52:17;;;;;;;5.60;1.42;;;;;;;13.49;100.00;94086.94;5075602;28;20475;-62
2021/08/07 01:54:47;;;;;;;2.95;1.20;;;;;;;13.49;100.00;94097.69;5057589;28;20024;-62
2021/08/07 01:57:19;;;;;;;6.97;1.50;;;;;;;13.47;100.00;94085.66;5057656;28;20020;-62
2021/08/07 01:59:48;;;;;;;3.85;1.50;;;;;;;13.46;100.00;94090.25;5075476;28;20055;-63
2021/08/07 02:02:17;;;;;;;3.17;1.40;;;;;;;13.46;100.00;94092.94;5075146;28;20024;-62
2021/08/07 02:04:42;;;;;;;4.22;1.40;;;;;;;13.46;100.00;94097.50;5057415;28;20028;-62
2021/08/07 02:07:14;;;;;;;3.78;1.75;;;;;;;13.41;100.00;94095.75;5075029;28;20026;-62
2021/08/07 02:09:46;;;;;;;3.30;1.30;;;;;;;13.43;100.00;94092.75;5075208;28;20491;-62
2021/08/07 02:12:15;;;;;;;2.67;1.37;;;;;;;13.44;100.00;94103.19;5075188;28;20029;-61
2021/08/07 02:14:44;;;;;;;2.50;1.23;;;;;;;13.43;100.00;94100.81;5057251;28;20543;-62
2021/08/07 02:17:12;;;;;;;3.85;1.50;;;;;;;13.44;100.00;94100.50;5074703;28;20145;-62
2021/08/07 02:19:39;;;;;;;4.32;1.67;;;;;;;13.44;100.00;94105.88;5075060;28;20024;-62
2021/08/07 02:22:09;;;;;;;4.20;1.35;;;;;;;13.40;100.00;94102.22;5057201;28;20411;-61
2021/08/07 02:24:39;;;;;;;6.47;1.70;;;;;;;13.34;100.00;94100.75;5074917;28;20165;-61
2021/08/07 02:27:07;;;;;;;4.07;1.50;;;;;;;13.33;100.00;94099.16;5056805;28;20028;-62
2021/08/07 02:29:37;;;;;;;5.38;1.50;;;;;;;13.29;100.00;94093.59;5056858;28;20387;-62
2021/08/07 02:32:03;;;;;;;4.43;1.40;;;;;;;13.28;100.00;94085.84;5074877;28;20036;-61
2021/08/07 02:34:29;;;;;;;2.42;1.40;;;;;;;13.27;100.00;94081.56;5073609;28;20020;-62
2021/08/07 02:36:56;;;;;;;5.20;1.50;;;;;;;13.26;100.00;94085.38;5061992;28;20032;-62
2021/08/07 02:39:23;;;;;;;2.22;1.42;;;;;;;13.26;100.00;94078.09;5056648;28;20043;-62
2021/08/07 02:41:51;;;;;;;5.30;2.03;;;;;;;13.24;100.00;94084.84;5074609;28;20141;-62
2021/08/07 02:44:20;;;;;;;3.85;1.30;;;;;;;13.24;100.00;94076.78;5056684;28;20499;-62
2021/08/07 02:46:46;;;;;;;3.20;1.58;;;;;;;13.22;100.00;94073.59;5074380;28;20028;-62
2021/08/07 02:49:11;;;;;;;3.85;1.40;;;;;;;13.21;100.00;94080.09;5074377;28;20032;-62
2021/08/07 02:51:41;;;;;;;2.55;1.38;;;;;;;13.21;100.00;94067.44;5074337;28;20027;-63
2021/08/07 02:54:12;;;;;;;4.13;1.88;;;;;;;13.21;100.00;94074.72;5074361;28;20029;-63
2021/08/07 02:56:38;;;;;;;3.15;1.65;;;;;;;13.19;100.00;94074.22;5074348;28;20028;-62
2021/08/07 02:59:03;;;;;;;3.20;1.85;;;;;;;13.18;100.00;94078.78;5056501;28;20486;-62
2021/08/07 03:01:31;;;;;;;5.50;2.00;;;;;;;13.20;100.00;94065.84;5055699;28;20074;-61
2021/08/07 03:03:59;;;;;;;3.88;1.80;;;;;;;13.20;100.00;94067.75;5074160;28;20360;-62
2021/08/07 03:06:44;;;;;;;2.38;1.70;;;;;;;13.21;100.00;94069.34;5074143;28;20021;-62
2021/08/07 03:09:12;;;;;;;5.85;1.60;;;;;;;13.18;100.00;94073.41;5056059;28;20036;-62
2021/08/07 03:11:49;;;;;;;1.45;1.35;;;;;;;13.17;100.00;94077.19;5073964;28;20069;-61
2021/08/07 03:14:14;;;;;;;4.32;1.50;;;;;;;13.15;100.00;94074.03;5074049;28;20078;-62
2021/08/07 03:16:39;;;;;;;1.92;1.20;;;;;;;13.13;100.00;94084.25;5074048;28;20028;-62
2021/08/07 03:19:05;;;;;;;3.50;2.00;;;;;;;13.10;100.00;94076.81;5073790;28;20434;-61
2021/08/07 03:21:31;;;;;;;3.75;1.80;;;;;;;13.06;100.00;94079.31;5073907;28;20340;-62
2021/08/07 03:23:59;;;;;;;5.72;1.70;;;;;;;13.03;100.00;94071.88;5073968;28;20025;-61
2021/08/07 03:26:24;;;;;;;2.17;1.48;;;;;;;13.02;100.00;94058.72;5073625;28;20043;-60
2021/08/07 03:28:50;;;;;;;3.30;1.80;;;;;;;13.04;100.00;94056.53;5073720;28;20476;-62
2021/08/07 03:31:15;;;;;;;2.65;1.70;;;;;;;13.03;100.00;94047.69;5055515;28;20109;-62
2021/08/07 03:33:41;;;;;;;5.80;1.70;;;;;;;13.01;100.00;94049.84;5073657;28;20449;-62
2021/08/07 03:36:07;;;;;;;3.05;1.70;;;;;;;13.02;100.00;94053.34;5060400;28;20024;-62
2021/08/07 03:38:33;;;;;;;3.70;2.08;;;;;;;13.03;100.00;94049.59;5073459;28;20020;-62
2021/08/07 03:40:58;;;;;;;4.68;1.85;;;;;;;13.00;100.00;94050.97;5073258;28;20099;-62
2021/08/07 03:43:27;;;;;;;4.35;1.60;;;;;;;12.99;100.00;94051.28;5073377;28;20032;-62
2021/08/07 03:45:52;;;;;;;3.17;1.70;;;;;;;12.97;100.00;94056.16;5073349;28;20020;-62
2021/08/07 03:48:18;;;;;;;2.72;1.70;;;;;;;12.93;100.00;94060.56;5073280;28;20020;-62
2021/08/07 03:50:46;;;;;;;2.55;1.58;;;;;;;12.87;100.00;94061.78;5055112;28;20028;-62
2021/08/07 03:53:11;;;;;;;3.72;1.75;;;;;;;12.79;100.00;94057.91;5055500;28;20059;-62
2021/08/07 03:55:47;;;;;;;4.38;1.80;;;;;;;12.76;100.00;94058.50;5055211;28;20193;-62
2021/08/07 03:58:12;;;;;;;5.53;2.15;;;;;;;12.70;100.00;94049.78;5056385;28;20040;-62
2021/08/07 04:00:41;;;;;;;4.00;1.67;;;;;;;12.69;100.00;94052.75;5073004;28;20024;-62
2021/08/07 04:03:06;;;;;;;3.13;1.90;;;;;;;12.64;100.00;94044.81;5073049;28;20024;-62
2021/08/07 04:05:37;;;;;;;4.32;1.67;;;;;;;12.61;100.00;94019.38;5073000;28;20021;-62
2021/08/07 04:08:11;;;;;;;2.38;1.63;;;;;;;12.63;100.00;94011.00;5072882;28;20029;-62
2021/08/07 04:10:37;;;;;;;2.92;1.73;;;;;;;12.64;100.00;94017.97;5072857;28;20060;-62
2021/08/07 04:13:03;;;;;;;5.25;1.58;;;;;;;12.62;100.00;94034.38;5071881;28;20506;-61
2021/08/07 04:15:39;;;;;;;4.00;1.65;;;;;;;12.59;100.00;94020.75;5072737;28;20036;-62
2021/08/07 04:18:07;;;;;;;3.10;1.70;;;;;;;12.57;100.00;94012.19;5079156;22;20061;-57
2021/08/07 04:20:35;;;;;;;2.17;1.65;;;;;;;12.57;100.00;94023.72;5033345;28;20025;-61
2021/08/07 04:23:00;;;;;;;3.80;1.73;;;;;;;12.57;100.00;94013.00;5034105;28;20029;-55
2021/08/07 04:25:26;;;;;;;3.17;1.80;;;;;;;12.62;100.00;94002.16;5052668;28;20017;-56
2021/08/07 04:28:09;;;;;;;2.10;1.75;;;;;;;12.61;100.00;93997.88;5059154;28;20035;-55
2021/08/07 04:30:37;;;;;;;2.65;1.88;;;;;;;12.60;100.00;93993.59;5072613;28;20360;-55
2021/08/07 04:33:03;;;;;;;2.70;1.75;;;;;;;12.60;100.00;93998.19;5054437;28;20029;-56
2021/08/07 04:35:34;;;;;;;3.95;2.15;;;;;;;12.60;100.00;93996.28;5046424;28;20020;-54
2021/08/07 04:38:02;;;;;;;5.05;2.03;;;;;;;12.66;100.00;94005.00;5052392;28;20029;-56
2021/08/07 04:40:29;;;;;;;1.88;1.65;;;;;;;12.65;100.00;94009.59;5034648;28;20360;-53
2021/08/07 04:42:54;;;;;;;4.53;2.20;;;;;;;12.68;100.00;93992.84;5034506;28;20079;-53
2021/08/07 04:45:20;;;;;;;6.80;2.10;;;;;;;12.75;100.00;93977.13;5034571;28;20017;-55
2021/08/07 04:48:00;;;;;;;3.67;1.77;;;;;;;12.84;100.00;93971.03;5052118;28;20061;-54
2021/08/07 04:50:28;;;;;;;6.32;1.83;;;;;;;12.91;100.00;93968.69;5052313;28;20017;-54
2021/08/07 04:52:54;;;;;;;2.45;1.67;;;;;;;12.93;100.00;93956.53;5061488;28;20051;-57
2021/08/07 04:55:20;;;;;;;2.78;1.90;;;;;;;13.00;100.00;93962.25;5052423;28;20111;-54
2021/08/07 04:57:49;;;;;;;3.83;2.15;;;;;;;13.05;100.00;93970.22;5052161;28;20108;-55
2021/08/07 05:00:19;;;;;;;8.23;2.58;;;;;;;13.13;100.00;93952.53;5034056;28;20031;-55
2021/08/07 05:02:47;;;;;;;3.60;2.40;;;;;;;13.20;100.00;93942.16;5017935;28;20052;-56
2021/08/07 05:05:17;;;;;;;2.22;2.00;;;;;;;13.26;100.00;93932.09;5052119;28;20021;-54
2021/08/07 05:07:43;;;;;;;8.50;2.25;;;;;;;13.27;100.00;93933.66;5051924;28;20035;-54
2021/08/07 05:10:10;;;;;;;2.58;1.90;;;;;;;13.37;100.00;93927.22;5034252;28;20521;-53
2021/08/07 05:12:39;;;;;;;2.78;1.95;;;;;;;13.43;100.00;93921.38;5034195;28;20037;-55
2021/08/07 05:15:05;;;;;;;3.88;2.05;;;;;;;13.51;100.00;93914.47;5052004;28;20142;-55
2021/08/07 05:17:31;;;;;;;6.78;2.15;;;;;;;13.56;100.00;93911.63;5051433;28;20044;-54
2021/08/07 05:19:56;;;;;;;3.47;1.60;;;;;;;13.57;100.00;93916.72;5046958;28;20032;-56
2021/08/07 05:22:23;;;;;;;3.72;1.85;;;;;;;13.60;100.00;93916.06;5052738;28;20036;-56
2021/08/07 05:24:49;;;;;;;3.95;1.77;;;;;;;13.71;100.00;93921.97;5019348;28;20025;-58
2021/08/07 05:27:17;;;;;;;10.27;2.40;;;;;;;13.88;100.00;93923.88;5064821;28;20043;-58
2021/08/07 05:29:43;;;;;;;2.28;1.55;;;;;;;14.14;100.00;93923.97;5037996;28;20036;-60
2021/08/07 05:32:09;;;;;;;2.75;1.88;;;;;;;14.40;100.00;93915.88;5021572;28;20033;-58
2021/08/07 05:34:34;;;;;;;5.30;1.98;;;;;;;14.74;100.00;93915.91;5055795;28;20033;-57
2021/08/07 05:37:02;;;;;;;4.35;1.80;;;;;;;15.08;100.00;93922.34;5055938;28;20028;-56
2021/08/07 05:39:30;;;;;;;3.83;2.10;;;;;;;15.37;100.00;93908.94;5054512;28;20021;-61
2021/08/07 05:41:55;;;;;;;5.55;2.05;;;;;;;15.73;100.00;93896.88;5038279;28;20017;-61
2021/08/07 05:44:38;;;;;;;4.68;1.80;;;;;;;16.07;100.00;93887.03;5055632;28;20383;-62
2021/08/07 05:47:06;;;;;;;3.55;1.73;;;;;;;16.35;100.00;93874.56;5055592;28;20044;-60
2021/08/07 05:49:31;;;;;;;3.92;2.28;;;;;;;16.67;100.00;93862.19;5055604;28;20043;-62
2021/08/07 05:51:59;;;;;;;3.80;1.80;;;;;;;16.87;100.00;93840.88;5055432;28;20021;-61
2021/08/07 05:54:34;;;;;;;2.75;1.65;;;;;;;16.97;100.00;93811.50;5054395;28;20076;-62
2021/08/07 05:56:59;;;;;;;3.42;2.05;;;;;;;16.98;100.00;93769.00;5057600;28;20047;-61
2021/08/07 05:59:25;;;;;;;4.82;1.98;;;;;;;17.05;100.00;93753.03;5075275;28;20024;-63
2021/08/07 06:01:50;;;;;;;8.93;2.30;;;;;;;17.21;100.00;93729.56;5075357;28;20012;-63
2021/08/07 06:04:16;;;;;;;5.22;1.85;;;;;;;17.34;100.00;93709.47;5075227;28;20035;-63
2021/08/07 06:06:44;;;;;;;4.38;1.92;;;;;;;17.41;100.00;93687.25;5057586;28;20043;-63
2021/08/07 06:09:13;;;;;;;3.83;2.25;;;;;;;17.39;100.00;93673.28;5057009;28;20032;-63
2021/08/07 06:11:43;;;;;;;4.07;2.33;;;;;;;17.35;100.00;93666.97;5075180;28;20364;-63
2021/08/07 06:14:12;;;;;;;6.18;2.00;;;;;;;17.24;100.00;93674.75;5074984;28;20024;-63
2021/08/07 06:16:46;;;;;;;3.15;1.75;;;;;;;17.20;100.00;93683.91;5075143;28;20028;-63
2021/08/07 06:19:12;;;;;;;5.03;2.10;;;;;;;17.12;100.00;93695.63;5053584;28;20040;-62
2021/08/07 06:21:49;;;;;;;3.30;1.90;;;;;;;17.02;100.00;93718.50;5053402;28;20483;-63
2021/08/07 06:24:18;;;;;;;3.65;1.70;;;;;;;16.91;100.00;93734.41;5054967;28;20071;-62
2021/08/07 06:26:43;;;;;;;4.13;2.10;;;;;;;16.80;100.00;93744.88;5054849;28;20380;-63
2021/08/07 06:29:09;;;;;;;3.75;1.80;;;;;;;16.73;100.00;93762.78;5054909;28;20025;-62
2021/08/07 06:31:34;;;;;;;6.47;2.00;;;;;;;16.72;100.00;93780.94;5054698;28;20029;-63
2021/08/07 06:34:03;;;;;;;3.83;1.90;;;;;;;16.64;100.00;93797.19;5053443;28;20029;-63
2021/08/07 06:36:32;;;;;;;3.47;2.00;;;;;;;16.55;100.00;93810.00;5053676;28;20052;-61
2021/08/07 06:39:00;;;;;;;5.13;1.90;;;;;;;16.53;100.00;93826.56;5053338;28;20016;-61
2021/08/07 06:41:25;;;;;;;2.30;1.80;;;;;;;16.51;100.00;93839.63;5053369;28;20036;-62
2021/08/07 06:43:51;;;;;;;3.17;1.70;;;;;;;16.49;100.00;93861.56;5053424;28;20029;-61
2021/08/07 06:46:16;;;;;;;3.78;1.73;;;;;;;16.48;100.00;93876.19;5053140;28;20021;-62
2021/08/07 06:48:41;;;;;;;4.03;2.00;;;;;;;16.46;100.00;93885.75;5054298;28;20082;-63
2021/08/07 06:51:12;;;;;;;2.53;1.83;;;;;;;16.46;100.00;93893.88;5053114;28;20046;-63
2021/08/07 06:53:40;;;;;;;3.92;2.30;;;;;;;16.44;100.00;93891.50;5053312;28;20033;-62
2021/08/07 06:56:05;;;;;;;2.22;1.88;;;;;;;16.44;100.00;93905.00;5053159;28;20039;-62
2021/08/07 06:58:31;;;;;;;2.67;1.80;;;;;;;16.41;100.00;93916.50;5053323;28;20507;-61
2021/08/07 07:00:56;;;;;;;4.25;2.05;;;;;;;16.38;100.00;93927.94;5054192;28;20040;-61
2021/08/07 07:03:24;;;;;;;7.15;3.38;;;;;;;16.36;100.00;93932.88;5054100;28;20032;-62
2021/08/07 07:05:49;;;;;;;5.65;2.33;;;;;;;16.34;100.00;93955.97;5054220;28;20025;-63
2021/08/07 07:08:15;;;;;;;3.40;1.95;;;;;;;16.30;100.00;93955.84;5054060;28;20035;-63
2021/08/07 07:10:40;;;;;;;3.08;1.80;;;;;;;16.24;100.00;93967.94;5052787;28;20060;-63
2021/08/07 07:13:06;;;;;;;3.45;2.10;;;;;;;16.22;100.00;93967.47;5054038;28;20116;-62
2021/08/07 07:15:37;;;;;;;3.38;2.00;;;;;;;16.20;100.00;93970.50;5052790;28;20376;-62
2021/08/07 07:18:17;;;;;;;2.92;1.90;;;;;;;16.13;100.00;93967.53;5052558;28;20052;-61
2021/08/07 07:20:45;;;;;;;4.55;1.88;;;;;;;16.11;100.00;93980.56;5053878;28;20032;-63
2021/08/07 07:23:13;;;;;;;3.65;2.22;;;;;;;16.07;100.00;93982.34;5038412;28;20033;-63
2021/08/07 07:25:39;;;;;;;4.20;2.22;;;;;;;16.03;100.00;93984.09;5033321;28;20384;-60
2021/08/07 07:28:04;;;;;;;4.43;1.90;;;;;;;16.05;100.00;93981.84;5033736;28;20026;-61
2021/08/07 07:30:33;;;;;;;5.10;2.00;;;;;;;16.09;100.00;93982.81;5032527;28;20025;-63
2021/08/07 07:33:16;;;;;;;3.08;1.88;;;;;;;16.17;100.00;93976.56;5033773;28;20033;-62
2021/08/07 07:35:41;;;;;;;3.67;1.95;;;;;;;16.34;100.00;93969.47;5032835;28;20029;-62
2021/08/07 07:38:18;;;;;;;5.65;1.92;;;;;;;16.49;100.00;93956.16;5033604;28;20487;-62
2021/08/07 07:40:43;;;;;;;4.70;2.17;;;;;;;16.70;100.00;93934.56;5034118;28;20080;-62
2021/08/07 07:43:09;;;;;;;5.55;2.13;;;;;;;17.17;100.00;93928.91;5033567;28;20026;-61
2021/08/07 07:45:37;;;;;;;3.58;2.17;;;;;;;17.46;100.00;93922.50;5033593;28;20025;-61
2021/08/07 07:48:08;;;;;;;2.80;1.95;;;;;;;17.66;100.00;93899.97;5031905;28;20044;-62
2021/08/07 07:50:44;;;;;;;3.45;1.95;;;;;;;17.96;100.00;93872.69;5033339;28;20095;-62
2021/08/07 07:53:12;;;;;;;6.88;2.13;;;;;;;18.13;100.00;93836.44;5032056;28;20030;-61
2021/08/07 07:55:38;;;;;;;5.22;2.10;;;;;;;18.35;100.00;93803.41;5033325;28;20100;-62
2021/08/07 07:58:03;;;;;;;3.80;2.08;;;;;;;18.54;100.00;93770.19;5031912;28;20124;-63
2021/08/07 08:00:31;;;;;;;6.80;2.70;;;;;;;18.86;100.00;93735.81;5033200;28;20029;-62
2021/08/07 08:03:00;;;;;;;5.45;2.40;;;;;;;19.20;100.00;93734.31;5032087;28;20025;-63
2021/08/07 08:05:25;;;;;;;4.03;1.75;;;;;;;19.66;100.00;93713.69;5033194;28;20025;-63
2021/08/07 08:08:18;;;;;;;3.22;2.15;;;;;;;20.18;100.00;93679.78;5033058;28;20072;-63
2021/08/07 08:10:43;;;;;;;2.67;1.97;;;;;;;20.67;100.00;93671.00;5032985;28;20104;-62
2021/08/07 08:13:09;;;;;;;3.13;1.92;;;;;;;21.03;100.00;93660.69;5033081;28;20352;-63
2021/08/07 08:15:37;;;;;;;6.13;2.40;;;;;;;21.01;100.00;93665.72;5032971;28;20082;-63
2021/08/07 08:18:04;;;;;;;6.50;2.30;;;;;;;21.21;100.00;93675.38;5039341;28;20450;-63
2021/08/07 08:20:35;;;;;;;5.57;2.17;;;;;;;21.43;100.00;93701.03;5060491;28;20032;-63
2021/08/07 08:23:04;;;;;;;6.43;2.30;;;;;;;21.48;100.00;93711.59;5058949;28;20027;-63
2021/08/07 08:25:29;;;;;;;4.68;2.47;;;;;;;21.48;100.00;93730.66;5018685;28;20426;-62
2021/08/07 08:28:05;;;;;;;4.55;2.30;;;;;;;21.32;100.00;93733.53;5052664;28;20025;-63
2021/08/07 08:30:39;;;;;;;4.80;2.28;;;;;;;21.22;100.00;93742.28;5053059;28;20478;-63
2021/08/07 08:33:08;;;;;;;4.25;2.13;;;;;;;21.21;100.00;93756.28;5052557;28;20395;-64
2021/08/07 08:35:33;;;;;;;3.53;2.20;;;;;;;21.15;100.00;93747.63;5034648;28;20044;-63
2021/08/07 08:38:02;;;;;;;3.25;1.65;;;;;;;21.25;100.00;93741.56;5052379;28;20468;-62
2021/08/07 08:40:28;;;;;;;3.08;2.03;;;;;;;21.26;100.00;93740.44;5034707;28;20029;-64
2021/08/07 08:43:01;;;;;;;5.05;2.30;;;;;;;21.25;100.00;93746.22;5034608;28;20107;-63
2021/08/07 08:45:35;;;;;;;4.53;2.50;;;;;;;21.24;100.00;93742.72;5052387;28;20533;-61
2021/08/07 08:48:13;;;;;;;4.53;2.05;;;;;;;21.29;100.00;93737.00;5052269;28;20036;-63
2021/08/07 08:50:47;;;;;;;5.63;1.90;;;;;;;21.39;100.00;93728.22;5052277;28;20108;-64
2021/08/07 08:53:15;;;;;;;6.05;1.88;;;;;;;21.39;100.00;93735.59;5052376;28;20047;-64
2021/08/07 08:55:48;;;;;;;4.47;2.33;;;;;;;21.45;100.00;93734.13;5052112;28;20025;-63
2021/08/07 08:58:16;;;;;;;3.88;2.00;;;;;;;21.49;100.00;93734.16;5052263;28;20545;-63
2021/08/07 09:00:41;;;;;;;6.57;2.75;;;;;;;21.39;100.00;93760.13;5051761;28;20033;-64
2021/08/07 09:03:10;;;;;;;4.00;2.33;;;;;;;21.42;100.00;93768.34;5034342;28;20434;-61
2021/08/07 09:05:38;;;;;;;4.03;2.22;;;;;;;21.35;100.00;93757.31;5034298;28;20028;-61
2021/08/07 09:08:04;;;;;;;6.47;2.40;;;;;;;21.36;100.00;93756.16;5052097;28;20048;-63
2021/08/07 09:10:31;;;;;;;3.90;2.25;;;;;;;21.41;100.00;93750.44;5051922;28;20072;-63
2021/08/07 09:12:59;;;;;;;4.15;2.40;;;;;;;21.37;100.00;93744.13;5034326;28;20055;-63
2021/08/07 09:15:33;;;;;;;3.45;2.53;;;;;;;21.34;100.00;93746.78;5034263;28;20049;-56
2021/08/07 09:18:11;;;;;;;5.00;2.42;;;;;;;21.30;100.00;93751.41;5051834;28;20047;-56
2021/08/07 09:20:38;;;;;;;4.95;2.33;;;;;;;21.16;100.00;93751.13;5061129;28;20024;-54
2021/08/07 09:23:11;;;;;;;5.20;2.20;;;;;;;21.00;100.00;93743.88;5070380;28;20127;-56
2021/08/07 09:25:41;;;;;;;2.78;2.00;;;;;;;20.95;100.00;93736.03;5071426;28;20032;-58
2021/08/07 09:28:07;;;;;;;6.82;2.58;;;;;;;20.88;100.00;93746.00;5060098;28;20032;-61
2021/08/07 09:30:42;;;;;;;3.85;1.90;;;;;;;20.82;100.00;93740.06;5034732;28;20373;-58
2021/08/07 09:33:21;;;;;;;3.88;2.35;;;;;;;20.73;100.00;93739.50;5051863;28;20051;-56
2021/08/07 09:35:48;;;;;;;5.35;2.55;;;;;;;20.66;100.00;93736.66;5051909;28;20024;-56
2021/08/07 09:38:22;;;;;;;5.68;2.72;;;;;;;20.57;100.00;93728.72;5051747;28;20391;-55
2021/08/07 09:40:52;;;;;;;4.95;2.58;;;;;;;20.42;100.00;93729.59;5051888;28;20021;-55
2021/08/07 09:43:31;;;;;;;3.53;2.38;;;;;;;20.38;100.00;93745.03;5051821;28;20020;-54
2021/08/07 09:46:12;;;;;;;3.22;2.25;;;;;;;20.22;100.00;93756.00;5033998;28;20025;-56
2021/08/07 09:48:48;;;;;;;5.15;2.33;;;;;;;20.13;100.00;93758.91;5051726;28;20086;-58
2021/08/07 09:51:35;;;;;;;6.80;2.58;;;;;;;19.90;100.00;93763.47;5051681;28;20087;-54
2021/08/07 09:54:11;;;;;;;6.35;2.00;;;;;;;19.74;100.00;93768.94;5051629;28;20036;-54
2021/08/07 09:56:49;;;;;;;3.20;2.20;;;;;;;19.53;100.00;93773.84;5054934;28;20059;-56
2021/08/07 09:59:18;;;;;;;4.55;2.47;;;;;;;19.45;100.00;93777.56;5051530;28;20036;-54
2021/08/07 10:02:10;;;;;;;3.83;2.35;;;;;;;19.27;100.00;93769.00;5051818;28;20059;-54
2021/08/07 10:04:41;;;;;;;5.70;2.25;;;;;;;19.19;100.00;93775.38;5035412;28;20134;-55
2021/08/07 10:07:10;;;;;;;3.22;2.42;;;;;;;19.11;100.00;93761.66;5051719;28;20029;-55
2021/08/07 10:09:37;;;;;;;4.40;1.98;;;;;;;19.18;100.00;93763.72;5033778;28;20102;-54
2021/08/07 10:12:05;;;;;;;3.22;2.17;;;;;;;19.11;100.00;93766.28;5054842;28;20021;-55
2021/08/07 10:14:30;;;;;;;4.15;2.25;;;;;;;19.11;100.00;93769.00;5055252;28;20109;-58
2021/08/07 10:17:14;;;;;;;4.55;2.10;;;;;;;19.19;100.00;93767.22;5055061;28;20471;-56
2021/08/07 10:19:43;;;;;;;6.97;2.42;;;;;;;19.28;100.00;93771.34;5084789;22;20063;-60
2021/08/07 10:22:10;;;;;;;3.30;2.28;;;;;;;19.28;100.00;93762.41;5055434;28;20028;-61
2021/08/07 10:24:44;;;;;;;5.03;2.30;;;;;;;19.36;100.00;93764.97;5036858;28;20024;-61
2021/08/07 10:27:17;;;;;;;4.32;2.35;;;;;;;19.46;100.00;93762.84;5077131;28;20058;-61
2021/08/07 10:29:46;;;;;;;5.15;2.42;;;;;;;19.56;100.00;93751.47;5093934;28;20027;-61
2021/08/07 10:32:21;;;;;;;5.15;2.42;;;;;;;19.70;100.00;93743.63;5074842;28;20032;-61
2021/08/07 10:34:50;;;;;;;3.55;2.08;;;;;;;19.84;100.00;93735.00;5074811;28;20040;-61
2021/08/07 10:37:23;;;;;;;4.15;2.20;;;;;;;19.99;100.00;93723.31;5074791;28;20470;-61
2021/08/07 10:39:49;;;;;;;5.22;2.15;;;;;;;20.31;100.00;93712.28;5056597;28;20028;-61
2021/08/07 10:42:18;;;;;;;4.85;2.03;;;;;;;20.53;100.00;93706.13;5074647;28;20025;-61
2021/08/07 10:44:46;;;;;;;5.10;2.30;;;;;;;20.67;100.00;93714.53;5056639;28;20048;-61
2021/08/07 10:47:12;;;;;;;2.80;2.38;;;;;;;20.52;100.00;93727.09;5056525;28;20096;-61
2021/08/07 10:49:40;;;;;;;4.18;2.17;;;;;;;20.37;100.00;93729.88;5074478;28;20138;-61
2021/08/07 10:52:25;;;;;;;4.35;1.98;;;;;;;20.27;100.00;93728.50;5074450;28;20020;-61
2021/08/07 10:54:54;;;;;;;3.78;2.10;;;;;;;20.32;100.00;93722.00;5060122;28;20036;-61
2021/08/07 10:57:38;;;;;;;7.63;2.67;;;;;;;20.35;100.00;93713.13;5048547;28;20032;-61
2021/08/07 11:00:16;;;;;;;5.32;2.15;;;;;;;20.27;100.00;93706.75;5047696;28;20488;-62
2021/08/07 11:02:42;;;;;;;3.10;2.00;;;;;;;20.23;100.00;93703.19;5094474;28;20085;-61
2021/08/07 11:05:09;;;;;;;4.18;1.75;;;;;;;20.27;100.00;93710.25;5094479;28;20111;-61
2021/08/07 11:07:38;;;;;;;3.67;2.03;;;;;;;20.25;100.00;93707.13;5059609;28;20153;-61
2021/08/07 11:10:15;;;;;;;3.13;2.05;;;;;;;20.28;100.00;93709.09;5094289;28;20023;-62
2021/08/07 11:12:45;;;;;;;3.28;1.80;;;;;;;20.33;100.00;93710.78;5094376;28;20032;-61
2021/08/07 11:15:28;;;;;;;3.85;2.00;;;;;;;20.20;100.00;93709.34;5076084;28;20386;-62
2021/08/07 11:17:53;;;;;;;3.20;2.08;;;;;;;20.12;100.00;93705.69;5093984;28;20028;-63
2021/08/07 11:20:37;;;;;;;4.68;2.13;;;;;;;20.14;100.00;93705.34;5094361;28;20027;-61
2021/08/07 11:23:10;;;;;;;2.75;1.90;;;;;;;20.01;100.00;93706.63;5065654;28;20025;-62
2021/08/07 11:25:47;;;;;;;4.32;1.85;;;;;;;19.90;100.00;93711.84;5042460;28;20034;-62
2021/08/07 11:28:13;;;;;;;3.08;1.80;;;;;;;19.97;100.00;93692.94;5073724;28;20050;-62
2021/08/07 11:30:39;;;;;;;4.18;1.90;;;;;;;20.02;100.00;93700.03;5065677;28;20029;-62
2021/08/07 11:33:06;;;;;;;3.13;1.70;;;;;;;20.00;100.00;93702.34;5093936;28;20119;-62
2021/08/07 11:35:32;;;;;;;4.05;1.70;;;;;;;19.95;100.00;93711.56;5094037;28;20016;-62